Time;durP1;ratioP1;P1;durP2;ratioP2;P2;SDS_P1;SDS_P2;PMS_P1;PMS_P2;Temp;Humidity;BMP_temperature;BMP_pressure;BME280_temperature;BME280_humidity;BME280_pressure;Samples;Min_cycle;Max_cycle;Signal;HPM_P1;HPM_P2
2023/10/07 00:00:28;;;;;;;25.88;5.93;;;16.40;99.90;;;;;;5005964;28;37833;-85
2023/10/07 00:02:59;;;;;;;17.33;5.78;;;16.40;99.90;;;;;;5005133;28;47540;-85
2023/10/07 00:05:31;;;;;;;26.27;6.75;;;16.40;99.90;;;;;;5005837;28;38640;-85
2023/10/07 00:08:03;;;;;;;24.70;6.38;;;16.40;99.90;;;;;;5004797;28;37967;-85
2023/10/07 00:10:36;;;;;;;19.35;5.65;;;16.50;99.90;;;;;;4999756;28;48677;-85
2023/10/07 00:13:08;;;;;;;21.63;6.25;;;16.50;99.90;;;;;;5005496;28;36774;-85
2023/10/07 00:15:46;;;;;;;20.35;5.13;;;16.50;99.90;;;;;;5002370;28;38952;-86
2023/10/07 00:18:13;;;;;;;21.38;5.43;;;16.50;99.90;;;;;;4998928;28;39077;-85
2023/10/07 00:20:47;;;;;;;17.85;5.20;;;16.60;99.90;;;;;;5007266;28;36707;-84
2023/10/07 00:23:23;;;;;;;18.30;5.05;;;16.60;99.90;;;;;;5003425;28;37860;-84
2023/10/07 00:25:53;;;;;;;14.20;5.32;;;16.60;99.90;;;;;;5005081;28;37860;-84
2023/10/07 00:28:35;;;;;;;26.52;5.72;;;16.60;99.90;;;;;;5005829;28;38036;-85
2023/10/07 00:31:06;;;;;;;15.90;4.85;;;16.60;99.90;;;;;;4999559;28;37038;-82
2023/10/07 00:39:03;;;;;;;22.95;4.90;;;16.70;99.90;;;;;;5001610;28;38606;-84
2023/10/07 00:41:39;;;;;;;17.63;5.10;;;16.70;99.90;;;;;;4998791;28;48376;-85
2023/10/07 00:44:21;;;;;;;17.80;5.72;;;16.80;99.90;;;;;;5002811;28;37338;-84
2023/10/07 00:46:55;;;;;;;18.42;5.05;;;16.80;99.90;;;;;;5004133;28;38848;-84
2023/10/07 00:49:22;;;;;;;18.40;5.18;;;16.70;99.90;;;;;;4996807;28;38386;-83
2023/10/07 00:51:52;;;;;;;17.35;4.80;;;16.80;99.90;;;;;;5006153;28;36599;-83
2023/10/07 00:54:30;;;;;;;13.88;5.18;;;16.70;99.90;;;;;;5002323;28;37398;-83
2023/10/07 00:57:13;;;;;;;16.02;4.97;;;16.70;99.90;;;;;;5005143;28;38773;-85
2023/10/07 00:59:49;;;;;;;16.75;4.78;;;16.70;99.90;;;;;;5001263;28;47253;-84
2023/10/07 01:02:22;;;;;;;17.25;4.90;;;16.70;99.90;;;;;;5384108;22;36490;-74
2023/10/07 01:04:49;;;;;;;13.30;4.78;;;16.70;99.90;;;;;;5011803;28;36165;-75
2023/10/07 01:07:18;;;;;;;17.42;4.78;;;16.70;99.90;;;;;;5019762;28;37960;-75
2023/10/07 01:09:58;;;;;;;15.32;5.45;;;16.80;99.90;;;;;;5024046;28;37403;-75
2023/10/07 01:12:25;;;;;;;23.23;6.03;;;16.80;99.90;;;;;;5023427;28;36851;-74
2023/10/07 01:14:53;;;;;;;16.98;5.30;;;16.90;99.90;;;;;;5025969;28;36215;-75
2023/10/07 01:17:30;;;;;;;14.32;5.05;;;16.90;99.90;;;;;;5019130;28;37757;-75
2023/10/07 01:19:57;;;;;;;15.02;4.45;;;16.90;99.90;;;;;;5024724;28;39382;-74
2023/10/07 01:22:35;;;;;;;18.70;4.82;;;16.90;99.90;;;;;;5014949;28;36767;-76
2023/10/07 01:25:08;;;;;;;19.42;4.90;;;16.90;99.90;;;;;;5027384;28;36956;-75
2023/10/07 01:27:56;;;;;;;20.73;4.82;;;16.90;99.90;;;;;;5024954;28;48552;-75
2023/10/07 01:30:29;;;;;;;19.83;4.28;;;16.90;99.90;;;;;;5020873;28;38313;-75
2023/10/07 01:33:05;;;;;;;15.07;4.72;;;17.00;99.90;;;;;;5026996;28;38137;-75
2023/10/07 01:35:38;;;;;;;15.80;4.53;;;17.00;99.90;;;;;;5025541;28;47368;-75
2023/10/07 01:38:08;;;;;;;15.93;5.00;;;17.00;99.90;;;;;;5018434;28;38738;-75
2023/10/07 01:43:16;;;;;;;11.93;3.90;;;17.00;99.90;;;;;;5032036;28;38293;-74
2023/10/07 01:45:42;;;;;;;13.55;4.32;;;17.00;99.90;;;;;;5034999;28;37550;-77
2023/10/07 01:48:09;;;;;;;14.07;4.20;;;17.00;99.90;;;;;;5033567;28;38591;-75
2023/10/07 01:50:43;;;;;;;11.93;3.72;;;17.00;99.90;;;;;;5029382;28;38744;-75
2023/10/07 01:53:16;;;;;;;17.35;4.30;;;17.10;99.90;;;;;;5027331;28;36971;-75
2023/10/07 01:55:42;;;;;;;17.40;4.53;;;17.10;99.90;;;;;;5022734;28;36367;-75
2023/10/07 01:58:13;;;;;;;12.77;4.28;;;17.20;99.90;;;;;;5014734;28;39834;-75
2023/10/07 02:00:57;;;;;;;14.35;4.15;;;17.20;99.90;;;;;;5023949;28;39068;-76
2023/10/07 02:03:23;;;;;;;16.77;4.63;;;17.20;99.90;;;;;;5024425;28;36961;-76
2023/10/07 02:05:50;;;;;;;15.65;3.83;;;17.20;99.90;;;;;;5038342;28;36413;-75
2023/10/07 02:08:24;;;;;;;13.45;4.20;;;17.30;99.90;;;;;;5011848;28;37546;-75
2023/10/07 02:10:51;;;;;;;11.20;3.75;;;17.30;99.90;;;;;;5021954;28;38363;-74
2023/10/07 02:13:19;;;;;;;11.63;3.50;;;17.30;99.90;;;;;;5022358;28;37189;-75
2023/10/07 02:15:46;;;;;;;12.95;3.90;;;17.30;99.90;;;;;;5020777;28;35637;-75
2023/10/07 02:18:15;;;;;;;14.27;4.28;;;17.30;99.90;;;;;;5025063;28;37133;-74
2023/10/07 02:23:46;;;;;;;13.15;4.25;;;17.30;99.90;;;;;;5016762;28;48956;-74
2023/10/07 02:26:19;;;;;;;19.95;4.88;;;17.30;99.90;;;;;;5011366;28;35938;-74
2023/10/07 02:29:06;;;;;;;16.23;4.30;;;17.40;99.90;;;;;;5026360;28;38857;-75
2023/10/07 02:31:42;;;;;;;15.35;4.97;;;17.40;99.90;;;;;;5024320;28;48006;-76
2023/10/07 02:34:21;;;;;;;13.98;3.70;;;17.40;99.90;;;;;;5017372;28;38920;-75
2023/10/07 02:36:51;;;;;;;18.42;4.40;;;17.40;99.90;;;;;;5020462;28;37584;-76
2023/10/07 02:39:24;;;;;;;14.23;4.75;;;17.40;99.90;;;;;;5020617;28;37993;-75
2023/10/07 02:41:50;;;;;;;;;;;17.40;99.90;;;;;;5020998;28;39043;-75
2023/10/07 02:44:27;;;;;;;14.82;4.55;;;17.40;99.90;;;;;;5019340;28;37504;-76
2023/10/07 02:46:54;;;;;;;12.68;3.80;;;17.40;99.90;;;;;;5026652;28;36938;-74
2023/10/07 02:49:21;;;;;;;16.38;4.93;;;17.30;99.90;;;;;;5019316;28;39600;-77
2023/10/07 02:51:57;;;;;;;16.50;4.10;;;17.30;99.90;;;;;;5018166;28;38250;-76
2023/10/07 02:54:32;;;;;;;16.08;4.32;;;17.30;99.90;;;;;;5029386;28;38199;-74
2023/10/07 02:57:09;;;;;;;15.48;4.43;;;17.30;99.90;;;;;;5021578;28;37848;-74
2023/10/07 02:59:36;;;;;;;11.10;4.15;;;17.30;99.90;;;;;;5023845;28;48287;-76
2023/10/07 03:07:34;;;;;;;15.35;4.15;;;17.20;99.90;;;;;;5024559;28;49255;-75
2023/10/07 03:10:28;;;;;;;11.90;4.07;;;17.20;99.90;;;;;;5023925;28;38684;-75
2023/10/07 03:12:57;;;;;;;18.00;5.03;;;17.20;99.90;;;;;;5020447;28;47380;-76
2023/10/07 03:15:41;;;;;;;13.10;3.85;;;17.20;99.90;;;;;;5022914;28;37913;-76
2023/10/07 03:18:30;;;;;;;11.98;3.80;;;17.20;99.90;;;;;;5020095;28;36278;-75
2023/10/07 03:21:15;;;;;;;15.30;4.93;;;17.20;99.90;;;;;;5012510;28;38587;-76
2023/10/07 03:23:48;;;;;;;12.90;4.13;;;17.30;99.90;;;;;;5014865;28;48615;-75
2023/10/07 03:26:18;;;;;;;14.32;3.72;;;17.20;99.90;;;;;;5033599;28;36640;-75
2023/10/07 03:28:55;;;;;;;12.13;4.47;;;17.20;99.90;;;;;;5014393;28;37481;-75
2023/10/07 03:31:34;;;;;;;13.38;4.22;;;17.20;99.90;;;;;;5019401;28;38566;-74
2023/10/07 03:34:03;;;;;;;18.50;4.63;;;17.30;99.90;;;;;;5018834;28;37422;-75
2023/10/07 03:36:41;;;;;;;14.85;4.60;;;17.30;99.90;;;;;;5017191;28;47282;-75
2023/10/07 03:39:24;;;;;;;14.23;4.00;;;17.30;99.90;;;;;;5019307;28;36500;-76
2023/10/07 03:41:59;;;;;;;15.13;4.75;;;17.30;99.90;;;;;;5024684;28;38357;-76
2023/10/07 03:44:26;;;;;;;13.32;3.85;;;17.30;99.90;;;;;;5023070;28;37212;-77
2023/10/07 03:46:54;;;;;;;15.65;4.82;;;17.30;99.90;;;;;;5018228;28;36978;-76
2023/10/07 03:49:21;;;;;;;12.82;3.60;;;17.30;99.90;;;;;;5025069;28;36202;-76
2023/10/07 03:51:55;;;;;;;16.83;4.85;;;17.30;99.90;;;;;;5019727;28;36262;-75
2023/10/07 03:54:29;;;;;;;16.90;4.53;;;17.30;99.90;;;;;;5013783;28;37841;-75
2023/10/07 03:56:56;;;;;;;15.95;4.05;;;17.30;99.90;;;;;;5018086;28;37471;-75
2023/10/07 03:59:23;;;;;;;14.27;4.63;;;17.30;99.90;;;;;;5021780;28;36092;-75
2023/10/07 04:01:53;;;;;;;13.27;4.43;;;17.30;99.90;;;;;;5024617;28;38596;-75
2023/10/07 04:04:23;;;;;;;16.15;4.55;;;17.30;99.90;;;;;;5021623;28;37682;-76
2023/10/07 04:06:50;;;;;;;14.38;4.38;;;17.30;99.90;;;;;;5021504;28;36809;-76
2023/10/07 04:09:17;;;;;;;20.48;4.57;;;17.30;99.90;;;;;;5019541;28;37398;-76
2023/10/07 04:11:49;;;;;;;16.65;4.93;;;17.30;99.90;;;;;;5023221;28;38543;-75
2023/10/07 04:14:19;;;;;;;15.40;4.03;;;17.30;99.90;;;;;;5024705;28;37196;-75
2023/10/07 04:16:49;;;;;;;15.50;4.18;;;17.30;99.90;;;;;;5024592;28;37916;-76
2023/10/07 04:21:42;;;;;;;14.07;4.35;;;17.30;99.90;;;;;;5023380;28;39212;-74
2023/10/07 04:24:12;;;;;;;19.60;5.07;;;17.30;99.90;;;;;;5036662;28;38842;-75
2023/10/07 04:26:39;;;;;;;13.07;4.93;;;17.30;99.90;;;;;;5022939;28;36589;-75
2023/10/07 04:29:15;;;;;;;18.73;4.93;;;17.30;99.90;;;;;;5024010;28;37803;-75
2023/10/07 04:31:46;;;;;;;17.17;5.03;;;17.30;99.90;;;;;;5025387;28;39836;-74
2023/10/07 04:34:15;;;;;;;14.43;4.70;;;17.30;99.90;;;;;;5024116;28;38866;-74
2023/10/07 04:40:27;;;;;;;19.10;5.13;;;17.30;99.90;;;;;;5018225;28;49157;-74
2023/10/07 04:42:38;;;;;;;19.73;4.80;;;17.30;99.90;;;;;;5020770;28;39317;-74
2023/10/07 04:48:31;;;;;;;16.30;4.25;;;17.30;99.90;;;;;;5032387;28;37482;-75
2023/10/07 04:51:03;;;;;;;13.77;5.68;;;17.30;99.90;;;;;;5012418;28;36574;-76
2023/10/07 04:53:39;;;;;;;19.25;5.03;;;17.30;99.90;;;;;;5021244;28;48655;-75
2023/10/07 04:56:07;;;;;;;14.75;4.72;;;17.30;99.90;;;;;;5023570;28;39209;-74
2023/10/07 04:58:33;;;;;;;18.63;5.38;;;17.30;99.90;;;;;;5027380;28;38078;-74
2023/10/07 05:01:05;;;;;;;19.70;5.57;;;17.30;99.90;;;;;;5025497;28;35377;-74
2023/10/07 05:03:31;;;;;;;18.00;5.15;;;17.30;99.90;;;;;;5012712;28;48285;-74
2023/10/07 05:05:58;;;;;;;20.77;4.97;;;17.30;99.90;;;;;;5024112;28;39110;-76
2023/10/07 05:08:27;;;;;;;17.00;4.90;;;17.30;99.90;;;;;;5025422;28;37004;-77
2023/10/07 05:11:04;;;;;;;17.38;5.38;;;17.30;99.90;;;;;;5024561;28;36398;-75
2023/10/07 05:13:34;;;;;;;17.73;5.57;;;17.30;99.90;;;;;;5022973;28;48738;-75
2023/10/07 05:16:07;;;;;;;18.63;5.70;;;17.30;99.90;;;;;;5020772;28;38325;-75
2023/10/07 05:18:34;;;;;;;21.70;5.75;;;17.30;99.90;;;;;;5028090;28;47616;-76
2023/10/07 05:21:00;;;;;;;18.38;5.82;;;17.30;99.90;;;;;;5027223;28;37274;-76
2023/10/07 05:23:27;;;;;;;19.08;5.78;;;17.30;99.90;;;;;;5013765;28;37748;-76
2023/10/07 05:25:53;;;;;;;20.58;5.40;;;17.30;99.90;;;;;;5036315;28;37719;-76
2023/10/07 05:28:21;;;;;;;21.25;5.70;;;17.30;99.90;;;;;;5025339;28;36518;-76
2023/10/07 05:30:51;;;;;;;20.85;5.55;;;17.30;99.90;;;;;;5014818;28;37758;-75
2023/10/07 05:33:24;;;;;;;25.63;6.78;;;17.30;99.90;;;;;;5032831;28;39728;-75
2023/10/07 05:35:51;;;;;;;25.63;5.97;;;17.30;99.90;;;;;;5026847;28;37074;-75
2023/10/07 05:38:18;;;;;;;24.85;6.85;;;17.30;99.90;;;;;;5014479;28;38427;-75
2023/10/07 05:40:44;;;;;;;25.35;6.35;;;17.30;99.90;;;;;;5027529;28;36989;-75
2023/10/07 05:43:11;;;;;;;19.92;5.82;;;17.30;99.90;;;;;;5019923;28;39906;-76
2023/10/07 05:45:38;;;;;;;24.52;6.30;;;17.30;99.90;;;;;;5015492;28;36997;-76
2023/10/07 05:48:05;;;;;;;21.42;6.25;;;17.30;99.90;;;;;;5024752;28;36622;-76
2023/10/07 05:50:32;;;;;;;24.58;5.93;;;17.30;99.90;;;;;;5023147;28;36174;-76
2023/10/07 05:53:04;;;;;;;26.17;6.35;;;17.30;99.90;;;;;;5026131;28;39562;-76
2023/10/07 05:55:34;;;;;;;21.63;5.80;;;17.30;99.90;;;;;;5029384;28;48470;-77
2023/10/07 05:58:02;;;;;;;21.23;6.72;;;17.30;99.90;;;;;;5024652;28;39590;-77
2023/10/07 06:00:31;;;;;;;23.80;6.97;;;17.30;99.90;;;;;;5021110;28;47199;-76
2023/10/07 06:03:02;;;;;;;24.05;7.00;;;17.30;99.90;;;;;;5023075;28;38950;-77
2023/10/07 06:05:29;;;;;;;18.73;6.40;;;17.30;99.90;;;;;;5013479;28;45873;-75
2023/10/07 06:07:57;;;;;;;27.13;6.75;;;17.30;99.90;;;;;;5026345;28;36888;-76
2023/10/07 06:10:24;;;;;;;21.33;6.57;;;17.30;99.90;;;;;;5030584;28;37898;-76
2023/10/07 06:12:53;;;;;;;20.77;7.40;;;17.40;99.90;;;;;;5040262;28;37691;-75
2023/10/07 06:15:20;;;;;;;21.48;6.68;;;17.30;99.90;;;;;;5021852;28;39387;-76
2023/10/07 06:17:46;;;;;;;22.95;6.78;;;17.30;99.90;;;;;;5024295;28;36803;-76
2023/10/07 06:20:16;;;;;;;23.48;5.97;;;17.30;99.90;;;;;;5026545;28;36054;-76
2023/10/07 06:22:45;;;;;;;21.70;6.18;;;17.30;99.90;;;;;;5024793;28;38683;-75
2023/10/07 06:25:12;;;;;;;28.67;6.78;;;17.30;99.90;;;;;;5018244;28;38038;-74
2023/10/07 06:27:42;;;;;;;23.70;6.63;;;17.30;99.90;;;;;;5025346;28;37089;-75
2023/10/07 06:30:11;;;;;;;28.20;7.68;;;17.30;99.90;;;;;;5024966;28;37857;-75
2023/10/07 06:32:44;;;;;;;26.63;6.68;;;17.30;99.90;;;;;;5026791;28;39121;-74
2023/10/07 06:35:13;;;;;;;;;;;17.30;99.90;;;;;;5041890;28;37587;-75
2023/10/07 06:37:41;;;;;;;21.17;6.05;;;17.30;99.90;;;;;;5036989;28;36381;-75
2023/10/07 06:42:55;;;;;;;27.67;6.38;;;17.30;99.90;;;;;;5025297;28;40339;-77
2023/10/07 06:45:35;;;;;;;17.45;5.90;;;17.20;99.90;;;;;;5031498;28;37207;-77
2023/10/07 06:48:05;;;;;;;20.88;5.90;;;17.20;99.90;;;;;;5020685;28;37357;-76
2023/10/07 06:50:32;;;;;;;21.58;5.35;;;17.30;99.90;;;;;;5019644;28;37421;-75
2023/10/07 06:52:59;;;;;;;23.75;5.30;;;17.20;99.90;;;;;;5017687;28;39593;-74
2023/10/07 06:55:25;;;;;;;18.38;5.63;;;17.20;99.90;;;;;;5014059;28;38240;-77
2023/10/07 06:57:56;;;;;;;22.95;5.72;;;17.20;99.90;;;;;;5022527;28;37080;-76
2023/10/07 07:00:24;;;;;;;27.98;7.03;;;17.20;99.90;;;;;;5013754;28;36627;-76
2023/10/07 07:02:57;;;;;;;20.95;5.80;;;17.20;99.90;;;;;;5016627;28;38595;-76
2023/10/07 07:05:25;;;;;;;16.17;5.78;;;17.20;99.90;;;;;;5023109;28;38550;-75
2023/10/07 07:07:52;;;;;;;28.35;6.50;;;17.20;99.90;;;;;;5017562;28;36243;-75
2023/10/07 07:10:30;;;;;;;23.48;6.10;;;17.20;99.90;;;;;;5018937;28;37503;-73
2023/10/07 07:13:13;;;;;;;27.13;6.25;;;17.20;99.90;;;;;;5021200;28;39630;-75
2023/10/07 07:15:43;;;;;;;21.08;5.82;;;17.30;99.90;;;;;;5018416;28;48579;-75
2023/10/07 07:20:48;;;;;;;21.17;5.55;;;17.40;99.90;;;;;;5025484;28;38624;-78
2023/10/07 07:23:16;;;;;;;25.25;6.60;;;17.40;99.90;;;;;;5019182;28;37737;-73
2023/10/07 07:25:53;;;;;;;23.20;5.88;;;17.40;99.90;;;;;;5023611;28;38202;-75
2023/10/07 07:28:19;;;;;;;17.98;5.90;;;17.40;99.90;;;;;;5020553;28;37936;-76
2023/10/07 07:30:45;;;;;;;20.60;5.88;;;17.50;99.90;;;;;;5035922;28;37317;-76
2023/10/07 07:33:12;;;;;;;20.77;5.78;;;17.50;99.90;;;;;;5025305;28;39884;-76
2023/10/07 07:35:40;;;;;;;26.88;6.38;;;17.50;99.90;;;;;;5023537;28;37106;-74
2023/10/07 07:38:17;;;;;;;24.52;6.35;;;17.50;99.90;;;;;;5023276;28;37564;-76
2023/10/07 07:40:44;;;;;;;20.95;6.10;;;17.50;99.90;;;;;;5027133;28;36035;-76
2023/10/07 07:43:13;;;;;;;20.67;6.20;;;17.50;99.90;;;;;;5025435;28;39077;-76
2023/10/07 07:45:40;;;;;;;23.15;6.05;;;17.50;99.90;;;;;;5023596;28;39165;-75
2023/10/07 07:48:07;;;;;;;21.48;5.28;;;17.50;99.90;;;;;;5016839;28;36954;-75
2023/10/07 07:50:35;;;;;;;25.60;6.93;;;17.50;99.90;;;;;;5040625;28;37980;-75
2023/10/07 07:53:09;;;;;;;21.27;6.03;;;17.60;99.90;;;;;;5014129;28;37855;-75
2023/10/07 07:55:37;;;;;;;21.23;6.47;;;17.60;99.90;;;;;;5018268;28;38952;-74
2023/10/07 07:58:04;;;;;;;22.40;6.13;;;17.60;99.90;;;;;;5026359;28;36552;-76
2023/10/07 08:00:31;;;;;;;22.90;6.30;;;17.60;99.90;;;;;;5022047;28;47201;-74
2023/10/07 08:02:58;;;;;;;23.42;5.80;;;17.60;99.90;;;;;;5023623;28;39575;-74
2023/10/07 08:05:34;;;;;;;23.65;5.97;;;17.70;99.90;;;;;;5034936;28;38409;-76
2023/10/07 08:08:09;;;;;;;23.38;6.10;;;17.70;99.90;;;;;;5029340;28;36969;-74
2023/10/07 08:10:35;;;;;;;24.35;6.22;;;17.80;99.90;;;;;;5020700;28;49153;-78
2023/10/07 08:13:06;;;;;;;22.25;7.00;;;17.80;99.90;;;;;;5020198;28;38685;-76
2023/10/07 08:15:39;;;;;;;22.30;6.25;;;17.90;99.90;;;;;;5021322;28;36974;-76
2023/10/07 08:18:07;;;;;;;22.33;6.07;;;17.90;99.90;;;;;;5021427;28;37402;-76
2023/10/07 08:20:44;;;;;;;23.35;6.60;;;18.00;99.90;;;;;;5018326;28;36190;-76
2023/10/07 08:23:36;;;;;;;18.98;6.22;;;18.10;99.90;;;;;;5037813;28;37424;-76
2023/10/07 08:26:08;;;;;;;22.30;6.03;;;18.20;99.90;;;;;;5025895;28;38890;-77
2023/10/07 08:28:47;;;;;;;23.50;6.28;;;18.30;99.90;;;;;;5023109;28;47218;-76
2023/10/07 08:31:17;;;;;;;20.17;5.60;;;18.40;99.90;;;;;;5023204;28;36355;-76
2023/10/07 08:33:53;;;;;;;21.95;5.72;;;18.40;99.90;;;;;;5027640;28;38541;-75
2023/10/07 08:36:29;;;;;;;22.55;5.82;;;18.50;99.90;;;;;;5024481;28;38617;-75
2023/10/07 08:38:58;;;;;;;25.20;6.40;;;18.60;99.90;;;;;;5015079;28;39990;-75
2023/10/07 08:41:28;;;;;;;22.92;6.18;;;18.70;99.90;;;;;;5028935;28;37011;-74
2023/10/07 08:46:40;;;;;;;22.73;5.35;;;19.00;99.90;;;;;;5025657;28;48830;-75
2023/10/07 08:49:17;;;;;;;20.45;5.45;;;19.10;99.90;;;;;;5023314;28;36909;-75
2023/10/07 08:51:43;;;;;;;16.80;4.40;;;19.10;99.90;;;;;;5021166;28;35992;-75
2023/10/07 08:54:26;;;;;;;19.25;5.45;;;19.20;99.90;;;;;;5025901;28;38782;-75
2023/10/07 08:57:15;;;;;;;26.40;6.80;;;19.10;99.90;;;;;;5027283;28;39177;-75
2023/10/07 08:59:46;;;;;;;19.58;4.88;;;19.10;99.90;;;;;;5016481;28;48018;-74
2023/10/07 09:02:12;;;;;;;18.50;5.25;;;19.00;99.90;;;;;;5024285;28;36164;-74
2023/10/07 09:04:40;;;;;;;17.33;5.30;;;19.00;99.90;;;;;;5026777;28;37727;-74
2023/10/07 09:07:11;;;;;;;17.05;4.82;;;18.90;99.90;;;;;;5026950;28;37664;-74
2023/10/07 09:09:39;;;;;;;22.93;6.73;;;18.90;99.90;;;;;;5017220;28;37966;-75
2023/10/07 09:12:49;;;;;;;22.15;5.75;;;18.90;99.90;;;;;;5024676;28;36623;-75
2023/10/07 09:14:59;;;;;;;19.88;5.22;;;18.80;99.90;;;;;;5024367;28;38758;-76
2023/10/07 09:17:26;;;;;;;22.00;5.00;;;18.70;99.90;;;;;;5024635;28;38724;-76
2023/10/07 09:19:58;;;;;;;19.65;5.53;;;18.80;99.90;;;;;;5024173;28;36650;-76
2023/10/07 09:22:33;;;;;;;21.10;5.95;;;18.90;99.90;;;;;;5025873;28;36152;-76
2023/10/07 09:28:01;;;;;;;19.95;5.40;;;19.00;99.90;;;;;;5026342;28;48480;-76
2023/10/07 09:30:35;;;;;;;16.43;4.70;;;19.10;99.90;;;;;;5018594;28;47244;-76
2023/10/07 09:33:13;;;;;;;18.75;5.75;;;19.10;99.90;;;;;;5024547;28;37796;-76
2023/10/07 09:35:43;;;;;;;20.55;5.20;;;19.20;99.90;;;;;;5022363;28;38742;-75
2023/10/07 09:38:27;;;;;;;25.08;5.47;;;19.40;99.90;;;;;;5025538;28;39323;-75
2023/10/07 09:43:27;;;;;;;17.30;5.35;;;19.50;99.90;;;;;;5026402;28;35757;-75
2023/10/07 09:45:58;;;;;;;20.58;4.88;;;19.70;99.90;;;;;;5022788;28;38877;-76
2023/10/07 09:48:31;;;;;;;20.17;4.45;;;19.90;99.90;;;;;;5025726;28;37663;-76
2023/10/07 09:50:58;;;;;;;21.73;6.03;;;20.00;99.90;;;;;;5026288;28;38785;-76
2023/10/07 09:53:55;;;;;;;21.70;5.50;;;20.00;99.90;;;;;;5024998;28;36858;-76
2023/10/07 09:56:39;;;;;;;22.15;5.95;;;20.10;99.90;;;;;;5026754;28;39019;-75
2023/10/07 09:59:25;;;;;;;21.83;5.38;;;20.00;99.90;;;;;;5026701;28;38837;-77
2023/10/07 10:02:25;;;;;;;21.25;5.45;;;19.90;99.90;;;;;;5024278;28;38921;-75
2023/10/07 10:05:12;;;;;;;15.77;4.75;;;19.70;99.90;;;;;;5025541;28;50113;-76
2023/10/07 10:08:10;;;;;;;18.88;5.13;;;19.70;99.90;;;;;;5014774;28;47161;-77
2023/10/07 10:10:44;;;;;;;18.50;4.88;;;19.70;99.90;;;;;;5023912;28;48238;-75
2023/10/07 10:16:44;;;;;;;17.65;4.78;;;19.90;99.90;;;;;;5023958;28;37536;-75
2023/10/07 10:19:37;;;;;;;17.33;4.90;;;20.00;99.90;;;;;;5033699;28;36864;-76
2023/10/07 10:22:15;;;;;;;16.90;4.85;;;20.00;99.90;;;;;;5023971;28;37609;-76
2023/10/07 10:24:43;;;;;;;16.65;5.07;;;20.20;99.90;;;;;;5023249;28;37652;-76
2023/10/07 10:27:11;;;;;;;14.45;4.35;;;20.30;99.90;;;;;;5023195;28;36844;-75
2023/10/07 10:29:52;;;;;;;19.75;4.75;;;20.30;99.90;;;;;;5025369;28;37651;-76
2023/10/07 10:32:28;;;;;;;13.05;4.68;;;20.30;99.90;;;;;;5016286;28;37442;-75
2023/10/07 10:35:03;;;;;;;24.45;4.97;;;20.40;99.90;;;;;;5020831;28;38369;-76
2023/10/07 10:37:32;;;;;;;12.60;4.55;;;20.40;99.90;;;;;;5011636;28;48659;-76
2023/10/07 10:40:14;;;;;;;17.13;4.25;;;20.40;99.90;;;;;;5020009;28;38923;-76
2023/10/07 10:42:47;;;;;;;14.83;4.30;;;20.50;99.90;;;;;;5021579;28;48797;-76
2023/10/07 10:45:29;;;;;;;14.05;4.38;;;20.50;99.90;;;;;;5021712;28;37278;-75
2023/10/07 10:47:59;;;;;;;15.43;4.05;;;20.40;99.90;;;;;;5022966;28;35994;-76
2023/10/07 10:50:28;;;;;;;17.45;4.13;;;20.20;99.90;;;;;;5017028;28;38580;-76
2023/10/07 10:52:56;;;;;;;17.50;4.68;;;20.10;99.90;;;;;;5021651;28;39357;-77
2023/10/07 10:55:24;;;;;;;14.73;4.10;;;20.10;99.90;;;;;;5023673;28;36972;-76
2023/10/07 10:57:52;;;;;;;9.40;4.10;;;20.30;99.90;;;;;;5022908;28;36085;-78
2023/10/07 11:00:22;;;;;;;18.27;4.70;;;20.30;99.90;;;;;;5019990;28;38651;-78
2023/10/07 11:02:53;;;;;;;15.68;4.90;;;20.30;99.90;;;;;;5021358;28;47165;-77
2023/10/07 11:05:25;;;;;;;13.23;3.90;;;20.20;99.90;;;;;;5022241;28;39432;-77
2023/10/07 11:07:52;;;;;;;17.23;4.70;;;20.20;99.90;;;;;;5018805;28;37386;-77
2023/10/07 11:10:25;;;;;;;16.10;4.40;;;20.40;99.90;;;;;;5022440;28;37814;-75
2023/10/07 11:12:52;;;;;;;16.35;4.70;;;20.60;99.90;;;;;;5025385;28;38201;-78
2023/10/07 11:15:25;;;;;;;17.85;4.80;;;20.80;99.90;;;;;;5022481;28;38684;-77
2023/10/07 11:17:56;;;;;;;;;;;20.80;99.90;;;;;;5023167;28;36610;-75
2023/10/07 11:20:24;;;;;;;12.18;4.32;;;20.80;99.90;;;;;;5022408;28;37836;-75
2023/10/07 11:22:51;;;;;;;14.68;4.65;;;20.80;99.90;;;;;;5020748;28;38447;-76
2023/10/07 11:25:18;;;;;;;18.85;4.47;;;20.90;99.90;;;;;;5016792;28;38116;-75
2023/10/07 11:27:46;;;;;;;11.45;3.90;;;20.90;99.90;;;;;;5023041;28;36637;-76
2023/10/07 11:30:14;;;;;;;16.85;4.93;;;21.10;99.90;;;;;;5021112;28;37789;-77
2023/10/07 11:32:43;;;;;;;12.40;3.92;;;21.10;99.90;;;;;;5024128;28;39469;-75
2023/10/07 11:35:16;;;;;;;22.05;4.63;;;20.90;99.90;;;;;;5024645;28;38208;-76
2023/10/07 11:37:57;;;;;;;16.02;4.05;;;20.80;99.90;;;;;;5020532;28;36013;-78
2023/10/07 11:40:32;;;;;;;16.52;4.93;;;20.80;99.90;;;;;;5018451;28;37588;-77
2023/10/07 11:43:04;;;;;;;16.83;4.28;;;20.80;99.90;;;;;;5022028;28;37866;-78
2023/10/07 11:45:36;;;;;;;18.08;5.10;;;21.00;99.90;;;;;;5023722;28;49024;-77
2023/10/07 11:48:08;;;;;;;14.70;4.40;;;21.00;99.90;;;;;;5017694;28;36163;-78
2023/10/07 11:50:35;;;;;;;11.85;3.95;;;21.00;99.90;;;;;;5018974;28;37840;-76
2023/10/07 11:53:02;;;;;;;18.48;4.78;;;20.80;99.90;;;;;;5020439;28;37388;-77
2023/10/07 11:55:31;;;;;;;15.32;4.45;;;20.70;99.90;;;;;;5018279;28;47628;-76
2023/10/07 11:58:01;;;;;;;15.88;5.05;;;20.60;99.90;;;;;;5025254;28;37351;-76
2023/10/07 12:00:29;;;;;;;15.73;4.32;;;20.40;99.90;;;;;;5020187;28;47180;-76
2023/10/07 12:02:57;;;;;;;19.00;5.15;;;20.40;99.90;;;;;;5010948;28;36835;-76
2023/10/07 12:05:27;;;;;;;13.45;4.20;;;20.30;99.90;;;;;;5019946;28;39215;-76
2023/10/07 12:08:01;;;;;;;14.43;4.40;;;20.20;99.90;;;;;;5018654;28;36757;-78
2023/10/07 12:10:28;;;;;;;12.82;4.43;;;20.20;99.90;;;;;;5019263;28;37903;-75
2023/10/07 12:12:57;;;;;;;18.15;5.10;;;20.00;99.90;;;;;;5031126;28;38311;-77
2023/10/07 12:15:25;;;;;;;15.40;4.57;;;20.10;99.90;;;;;;5018792;28;37083;-78
2023/10/07 12:17:52;;;;;;;20.50;5.45;;;20.20;99.90;;;;;;5021096;28;36847;-76
2023/10/07 12:20:20;;;;;;;15.45;4.90;;;20.20;99.90;;;;;;5014670;28;39288;-76
2023/10/07 12:22:47;;;;;;;13.95;5.13;;;20.30;99.90;;;;;;5017334;28;38111;-76
2023/10/07 12:25:16;;;;;;;14.15;4.55;;;20.40;99.90;;;;;;5018185;28;36823;-76
2023/10/07 12:27:43;;;;;;;15.50;4.38;;;20.50;99.90;;;;;;5013084;28;37239;-76
2023/10/07 12:30:11;;;;;;;20.08;5.25;;;20.40;99.90;;;;;;5017017;28;38646;-76
2023/10/07 12:32:44;;;;;;;19.00;5.15;;;20.50;99.90;;;;;;5018324;28;38651;-76
2023/10/07 12:35:11;;;;;;;16.13;5.18;;;20.60;99.90;;;;;;5031423;28;35350;-77
2023/10/07 12:37:38;;;;;;;17.67;5.00;;;20.70;99.90;;;;;;5018774;28;36070;-76
2023/10/07 12:40:10;;;;;;;15.85;5.30;;;20.70;99.90;;;;;;5011984;28;39620;-76
2023/10/07 12:42:40;;;;;;;;;;;20.70;99.90;;;;;;5011468;28;47045;-76
2023/10/07 12:45:07;;;;;;;19.70;5.25;;;20.60;99.90;;;;;;5011889;28;38360;-74
2023/10/07 12:47:34;;;;;;;16.38;4.85;;;20.50;99.90;;;;;;5017560;28;35795;-74
2023/10/07 12:52:50;;;;;;;26.52;6.35;;;20.60;99.90;;;;;;5019191;28;49134;-75
2023/10/07 12:55:17;;;;;;;15.57;5.30;;;20.70;99.90;;;;;;5019250;28;37116;-76
2023/10/07 12:57:44;;;;;;;14.07;4.20;;;20.60;99.90;;;;;;5018254;28;36806;-75
2023/10/07 13:00:28;;;;;;;16.65;4.72;;;20.80;99.90;;;;;;5016059;28;37769;-75
2023/10/07 13:02:54;;;;;;;17.98;5.57;;;21.00;99.90;;;;;;5016892;28;47355;-75
2023/10/07 13:05:22;;;;;;;21.55;5.68;;;21.00;99.90;;;;;;5022777;28;38098;-76
2023/10/07 13:07:56;;;;;;;16.27;5.30;;;21.10;99.90;;;;;;5016041;28;36072;-76
2023/10/07 13:10:23;;;;;;;22.33;5.90;;;21.10;99.90;;;;;;5020319;28;37634;-75
2023/10/07 13:12:50;;;;;;;22.20;5.57;;;21.00;99.90;;;;;;5026400;28;38310;-74
2023/10/07 13:15:18;;;;;;;21.05;5.50;;;21.00;99.90;;;;;;5024414;28;38235;-74
2023/10/07 13:17:46;;;;;;;15.52;5.05;;;20.80;99.90;;;;;;5020114;28;37655;-77
2023/10/07 13:20:26;;;;;;;15.27;5.43;;;20.80;99.90;;;;;;5013119;28;38954;-78
2023/10/07 13:22:54;;;;;;;20.27;6.07;;;20.80;99.90;;;;;;5018057;28;37543;-73
2023/10/07 13:25:21;;;;;;;21.55;5.88;;;20.60;99.90;;;;;;5019060;28;39169;-75
2023/10/07 13:27:48;;;;;;;21.55;5.90;;;20.70;99.90;;;;;;5020421;28;37014;-75
2023/10/07 13:30:16;;;;;;;23.63;5.90;;;20.70;99.90;;;;;;5013454;28;40230;-78
2023/10/07 13:32:46;;;;;;;17.05;5.80;;;20.70;99.90;;;;;;5019057;28;38082;-77
2023/10/07 13:35:16;;;;;;;15.13;4.95;;;20.70;99.90;;;;;;5016961;28;39161;-76
2023/10/07 13:37:46;;;;;;;23.52;5.25;;;20.80;99.90;;;;;;5025883;28;37214;-76
2023/10/07 13:40:16;;;;;;;16.42;4.88;;;20.90;99.90;;;;;;5029224;28;39072;-76
2023/10/07 13:42:47;;;;;;;20.70;5.57;;;20.80;99.90;;;;;;5027539;28;37986;-76
2023/10/07 13:45:14;;;;;;;17.00;5.05;;;20.60;99.90;;;;;;5023405;28;36052;-76